Aeroporto :
LOGIN :

Iscrizione | Disclaimer

   EN    FR    IT 

 










Sommario :    VFR   VFR Marginale   IFR   IFR Intensivo   IFR Molto Intensivo
Visibilità : 
Base nubi : 
>= 8 km
>= 3000ft
5 / 8 km
1000 / 3000 ft
1500m / 5 km
500 / 1000 ft
800 / 1500m
200 / 500 ft
< 800m
< 200 ft
Simboli :   Temporali  Nebbia  Neve Forte  Precipitazioni Forti  Vento > 20 kt
SIGMETs :   Varie  Temporali  Ghiacco  Turbolenza  Onda orograficha  Ceneri Vulcaniche






- Altitudine del aeroporto : 1071 ft
- Codice IATA : LWO


UKLL - L'viv

ULTIMO METAR :
  • 231100Z 27007MPS 9999 -SHRA BKN011 BKN026CB 05/03 Q1014 R31/290055 NOSIG

METARs OBSOLETI :
  • 231030Z 27008MPS 9999 -SHRA BKN011 BKN020CB 05/03 Q1015 R31/290055 NOSIG
  • 231000Z 28007G12MPS 9999 -SHRA SCT016CB BKN016 05/03 Q1015 R31/290055 NOSIG
  • 230930Z 27006MPS 9999 SCT043CB BKN043 05/03 Q1015 R31/290055 NOSIG
  • 230912Z 28007MPS 250V310 9999 -SHRA SCT020CB BKN020 04/03 Q1015 R31/290055 NOSIG
  • 230902Z 29006MPS 8000 -SHRA BKN010 BKN016CB 04/03 Q1016 R31/290055 NOSIG
  • 230830Z 30007MPS 9000 -SHRA SCT022CB BKN022 05/02 Q1016 R31/CLRD// NOSIG

TAF TAF UKLL
Valido dal 23 a 06 ore il 24 a 06 ore UTC


230509Z 2306/2406 26005G12MPS 9999 BKN020 TX07/2312Z TN02/2403Z
TEMPO 2306/2313 2100 -SHRA SCT004 BKN007 BKN025CB
BECMG 2313/2315 23007G14MPS 5000 -SHRA SCT004 BKN007 BKN025CB
BECMG 2321/2323 28009G15MPS
TEMPO 2323/2406 30011G20MPS 1400 SHRASN BKN003 BKN020CB



MetMap, La meteo Aeronautica in un colpo d'occhio ! - Copyright ORBIFLY Dicembre 2007 - Disclaimer

ORBIFLY MET'MAP TEAM :

Programmazione e sviluppo : Alexandra Zaïnal
Concezione : Baudouin d'Aumeries
Aiuto per la programmazione : Marc-Olivier Méhu
Supporto tecnico e logistico : Manuel Goepfert
Aiuto per la traduzione : Arnaldo La Scala

Contatto : metmap@orbifly.com




FONTI E CREDITI :

   NOAA